createdAt,value
2022-12-06T00:01:09.145Z,13.78
2022-12-06T00:03:09.207Z,14.97
2022-12-06T00:04:09.234Z,14.36
2022-12-06T00:05:09.180Z,13.67
2022-12-06T00:07:09.192Z,13.39
2022-12-06T00:08:09.324Z,14.38
2022-12-06T00:09:09.208Z,15.23
2022-12-06T00:10:09.190Z,13.90
2022-12-06T00:12:09.256Z,14.90
2022-12-06T00:13:09.229Z,14.56
2022-12-06T00:14:09.175Z,15.13
2022-12-06T00:15:09.237Z,13.23
2022-12-06T00:17:09.217Z,14.10
2022-12-06T00:19:09.231Z,14.36
2022-12-06T00:20:09.270Z,13.48
2022-12-06T00:21:09.214Z,15.37
2022-12-06T00:22:09.249Z,15.65
2022-12-06T00:24:09.242Z,15.03
2022-12-06T00:25:09.265Z,17.57
2022-12-06T00:26:09.237Z,17.75
2022-12-06T00:27:09.290Z,17.50
2022-12-06T00:28:09.232Z,16.85
2022-12-06T00:29:09.271Z,16.96
2022-12-06T00:30:09.293Z,18.34
2022-12-06T00:31:09.236Z,18.15
2022-12-06T00:32:11.311Z,19.31
2022-12-06T00:33:09.242Z,18.60
2022-12-06T00:34:09.278Z,19.88
2022-12-06T00:35:09.296Z,19.28
2022-12-06T00:36:09.227Z,20.09
2022-12-06T00:37:09.305Z,18.28
2022-12-06T00:38:09.278Z,17.54
2022-12-06T00:39:09.306Z,17.93
2022-12-06T00:40:09.314Z,19.16
2022-12-06T00:41:09.253Z,19.96
2022-12-06T00:42:09.312Z,19.31
2022-12-06T00:43:09.323Z,19.23
2022-12-06T00:44:09.248Z,19.38
2022-12-06T00:45:09.340Z,18.71
2022-12-06T00:46:09.474Z,19.50
2022-12-06T00:47:09.296Z,20.54
2022-12-06T00:48:14.287Z,18.47
2022-12-06T00:49:09.305Z,21.03
2022-12-06T00:50:09.303Z,18.81
2022-12-06T00:51:09.251Z,19.76
2022-12-06T00:52:09.277Z,21.73
2022-12-06T00:53:09.274Z,19.30
2022-12-06T00:54:09.283Z,20.65
2022-12-06T00:55:09.313Z,20.10
2022-12-06T00:56:09.330Z,18.34
2022-12-06T00:57:09.338Z,19.02
2022-12-06T00:58:09.328Z,19.63
2022-12-06T00:59:09.305Z,21.56
2022-12-06T01:00:09.372Z,19.94
2022-12-06T01:01:09.362Z,20.06
2022-12-06T01:02:09.298Z,19.55
2022-12-06T01:04:09.285Z,20.16
2022-12-06T01:05:09.322Z,19.71
2022-12-06T01:06:09.348Z,18.15
2022-12-06T01:07:09.320Z,19.12
2022-12-06T01:08:09.477Z,18.98
2022-12-06T01:09:09.314Z,20.31
2022-12-06T01:10:09.638Z,19.86
2022-12-06T01:11:09.385Z,20.10
2022-12-06T01:12:09.361Z,19.45
2022-12-06T01:13:09.384Z,18.91
2022-12-06T01:14:09.330Z,20.16
2022-12-06T01:15:09.365Z,18.71
2022-12-06T01:16:09.465Z,20.00
2022-12-06T01:17:09.512Z,21.51
2022-12-06T01:18:09.413Z,20.57
2022-12-06T01:19:09.369Z,19.45
2022-12-06T01:20:09.375Z,21.77
2022-12-06T01:21:09.421Z,19.53
2022-12-06T01:22:09.575Z,21.25
2022-12-06T01:23:09.427Z,20.05
2022-12-06T01:24:09.387Z,21.16
2022-12-06T01:25:09.350Z,19.93
2022-12-06T01:26:09.397Z,20.20
2022-12-06T01:27:09.398Z,20.22
2022-12-06T01:28:09.407Z,21.48
2022-12-06T01:29:09.372Z,19.05
2022-12-06T01:30:09.363Z,20.00
2022-12-06T01:31:09.516Z,19.27
2022-12-06T01:32:09.369Z,19.37
2022-12-06T01:33:09.393Z,18.65
2022-12-06T01:34:09.449Z,19.39
2022-12-06T01:35:09.356Z,19.45
2022-12-06T01:36:09.445Z,20.03
2022-12-06T01:37:09.404Z,18.39
2022-12-06T01:38:09.417Z,18.82
2022-12-06T01:39:09.437Z,18.76
2022-12-06T01:40:09.423Z,19.29
2022-12-06T01:41:09.432Z,18.90
2022-12-06T01:42:09.389Z,17.43
2022-12-06T01:43:09.407Z,18.00
2022-12-06T01:44:09.490Z,17.04
2022-12-06T01:45:09.390Z,18.09
2022-12-06T01:46:09.471Z,17.69
2022-12-06T01:47:09.417Z,17.54
2022-12-06T01:48:09.414Z,19.39
2022-12-06T01:49:09.491Z,17.27
2022-12-06T01:50:09.462Z,16.86
2022-12-06T01:51:09.454Z,18.72
2022-12-06T01:52:09.440Z,18.19
2022-12-06T01:53:09.407Z,18.00
2022-12-06T01:54:09.447Z,16.83
2022-12-06T01:55:09.450Z,18.35
2022-12-06T01:56:09.473Z,18.03
2022-12-06T01:57:09.417Z,18.20
2022-12-06T01:58:09.470Z,19.04
2022-12-06T01:59:09.729Z,18.31
2022-12-06T02:00:09.444Z,18.74
2022-12-06T02:01:09.501Z,17.88
2022-12-06T02:02:09.535Z,17.67
2022-12-06T02:03:09.499Z,18.78
2022-12-06T02:04:09.469Z,17.55
2022-12-06T02:05:09.459Z,17.84
2022-12-06T02:06:09.458Z,18.11
2022-12-06T02:07:09.531Z,17.62
2022-12-06T02:08:09.603Z,18.17
2022-12-06T02:09:09.479Z,18.12
2022-12-06T02:10:09.513Z,18.38
2022-12-06T02:11:09.472Z,18.62
2022-12-06T02:12:09.527Z,17.38
2022-12-06T02:13:09.655Z,16.71
2022-12-06T02:14:09.505Z,16.54
2022-12-06T02:15:09.487Z,16.25
2022-12-06T02:16:09.473Z,15.20
2022-12-06T02:17:10.305Z,17.00
2022-12-06T02:18:09.490Z,16.02
2022-12-06T02:19:09.507Z,16.46
2022-12-06T02:20:09.561Z,14.39
2022-12-06T02:21:09.487Z,15.27
2022-12-06T02:22:09.568Z,15.41
2022-12-06T02:23:09.543Z,15.47
2022-12-06T02:24:09.548Z,15.21
2022-12-06T02:25:09.558Z,15.60
2022-12-06T02:27:09.533Z,15.20
2022-12-06T02:28:09.506Z,14.44
2022-12-06T02:29:09.521Z,14.47
2022-12-06T02:30:09.553Z,14.47
2022-12-06T02:31:09.620Z,13.85
2022-12-06T02:32:09.525Z,13.63
2022-12-06T02:33:09.581Z,13.92
2022-12-06T02:34:09.583Z,14.68
2022-12-06T02:35:09.584Z,15.26
2022-12-06T02:36:09.968Z,14.92
2022-12-06T02:38:13.000Z,12.70
2022-12-06T02:39:09.564Z,14.21
2022-12-06T02:40:09.564Z,13.03
2022-12-06T02:41:09.542Z,13.46
2022-12-06T02:42:09.591Z,13.55
2022-12-06T02:43:09.593Z,12.92
2022-12-06T02:45:09.610Z,12.87
2022-12-06T02:47:09.604Z,12.93
2022-12-06T02:48:09.578Z,13.43
2022-12-06T02:49:09.562Z,13.68
2022-12-06T02:50:09.587Z,13.64
2022-12-06T02:51:09.557Z,13.54
2022-12-06T02:52:09.549Z,14.00
2022-12-06T02:53:09.652Z,14.09
2022-12-06T02:54:09.565Z,13.50
2022-12-06T02:55:09.600Z,13.03
2022-12-06T02:56:09.616Z,12.99
2022-12-06T02:57:09.576Z,13.99
2022-12-06T02:58:09.644Z,14.00
2022-12-06T02:59:09.606Z,12.83
2022-12-06T03:00:09.658Z,13.28
2022-12-06T03:01:09.654Z,14.27
2022-12-06T03:02:09.660Z,13.34
2022-12-06T03:03:09.625Z,14.17
2022-12-06T03:04:09.600Z,14.07
2022-12-06T03:05:09.658Z,13.22
2022-12-06T03:07:09.634Z,13.32
2022-12-06T03:09:09.611Z,13.25
2022-12-06T03:10:09.668Z,13.03
2022-12-06T03:11:09.648Z,12.94
2022-12-06T03:12:09.606Z,12.49
2022-12-06T03:13:10.173Z,13.05
2022-12-06T03:14:13.386Z,13.69
2022-12-06T03:15:09.675Z,13.70
2022-12-06T03:16:09.735Z,12.60
2022-12-06T03:17:09.674Z,13.30
2022-12-06T03:18:09.649Z,12.88
2022-12-06T03:20:09.664Z,13.41
2022-12-06T03:21:09.721Z,13.01
2022-12-06T03:22:09.672Z,13.08
2022-12-06T03:23:09.709Z,13.64
2022-12-06T03:25:09.677Z,13.36
2022-12-06T03:27:09.658Z,13.26
2022-12-06T03:29:09.660Z,13.06
2022-12-06T03:30:09.666Z,12.75
2022-12-06T03:34:09.672Z,12.56
2022-12-06T03:35:09.689Z,12.92
2022-12-06T03:36:09.741Z,13.07
2022-12-06T03:37:09.687Z,12.23
2022-12-06T03:38:09.678Z,13.49
2022-12-06T03:39:09.783Z,13.44
2022-12-06T03:40:09.709Z,13.59
2022-12-06T03:41:09.748Z,12.92
2022-12-06T03:42:09.719Z,13.42
2022-12-06T03:43:09.724Z,11.67
2022-12-06T03:44:09.764Z,12.63
2022-12-06T03:46:09.918Z,12.57
2022-12-06T03:47:09.756Z,13.20
2022-12-06T03:53:09.782Z,12.39
2022-12-06T03:54:09.778Z,12.73
2022-12-06T03:55:09.746Z,11.60
2022-12-06T03:56:09.759Z,12.82
2022-12-06T03:57:09.771Z,12.68
2022-12-06T03:58:09.764Z,12.82
2022-12-06T03:59:09.761Z,13.35
2022-12-06T04:00:09.748Z,14.12
2022-12-06T04:01:09.764Z,13.17
2022-12-06T04:02:09.809Z,12.95
2022-12-06T04:03:09.764Z,13.20
2022-12-06T04:04:09.833Z,12.27
2022-12-06T04:05:09.771Z,12.63
2022-12-06T04:06:09.781Z,13.40
2022-12-06T04:07:09.771Z,13.17
2022-12-06T04:08:09.864Z,12.56
2022-12-06T04:09:09.815Z,12.18
2022-12-06T04:10:09.778Z,12.50
2022-12-06T04:11:09.799Z,12.64
2022-12-06T04:12:09.821Z,12.57
2022-12-06T04:13:09.795Z,13.23
2022-12-06T04:15:09.824Z,13.29
2022-12-06T04:16:09.926Z,13.41
2022-12-06T04:17:09.818Z,12.75
2022-12-06T04:20:09.806Z,14.29
2022-12-06T04:21:09.813Z,14.44
2022-12-06T04:22:09.811Z,14.60
2022-12-06T04:23:09.814Z,14.49
2022-12-06T04:24:09.786Z,12.20
2022-12-06T04:25:09.778Z,14.21
2022-12-06T04:26:09.774Z,14.35
2022-12-06T04:27:10.647Z,13.13
2022-12-06T04:28:09.826Z,13.73
2022-12-06T04:29:09.787Z,12.98
2022-12-06T04:30:09.842Z,13.34
2022-12-06T04:31:09.893Z,13.34
2022-12-06T04:33:09.844Z,13.71
2022-12-06T04:34:09.805Z,13.98
2022-12-06T04:35:09.848Z,13.10
2022-12-06T04:36:09.858Z,14.84
2022-12-06T04:37:09.852Z,15.14
2022-12-06T04:40:09.873Z,15.12
2022-12-06T04:41:09.821Z,15.13
2022-12-06T04:42:09.883Z,14.82
2022-12-06T04:43:09.832Z,14.95
2022-12-06T04:47:09.865Z,15.21
2022-12-06T04:49:09.844Z,14.06
2022-12-06T04:50:09.922Z,15.11
2022-12-06T04:51:09.844Z,13.58
2022-12-06T04:52:09.851Z,13.95
2022-12-06T04:54:09.860Z,14.28
2022-12-06T04:55:09.903Z,15.07
2022-12-06T04:56:09.855Z,13.94
2022-12-06T04:57:09.862Z,13.07
2022-12-06T04:58:09.901Z,14.22
2022-12-06T04:59:09.930Z,15.30
2022-12-06T05:00:09.898Z,15.69
2022-12-06T05:01:09.972Z,15.68
2022-12-06T05:02:09.925Z,15.85
2022-12-06T05:04:10.841Z,13.65
2022-12-06T05:06:09.881Z,16.51
2022-12-06T05:07:09.917Z,16.00
2022-12-06T05:08:10.208Z,15.60
2022-12-06T05:09:09.917Z,17.21
2022-12-06T05:10:09.940Z,17.48
2022-12-06T05:11:09.929Z,14.87
2022-12-06T05:12:09.910Z,14.23
2022-12-06T05:14:09.899Z,14.85
2022-12-06T05:15:09.904Z,14.43
2022-12-06T05:16:10.064Z,13.76
2022-12-06T05:17:09.947Z,14.19
2022-12-06T05:18:09.905Z,15.31
2022-12-06T05:20:09.918Z,14.79
2022-12-06T05:21:09.991Z,14.43
2022-12-06T05:22:09.911Z,13.13
2022-12-06T05:23:09.936Z,13.43
2022-12-06T05:24:09.933Z,15.44
2022-12-06T05:25:09.973Z,15.01
2022-12-06T05:26:10.006Z,14.04
2022-12-06T05:27:09.982Z,14.05
2022-12-06T05:28:10.003Z,15.16
2022-12-06T05:29:09.942Z,14.38
2022-12-06T05:31:10.061Z,14.49
2022-12-06T05:32:09.948Z,14.25
2022-12-06T05:33:10.016Z,13.96
2022-12-06T05:34:09.951Z,14.15
2022-12-06T05:35:09.995Z,14.29
2022-12-06T05:36:10.000Z,13.79
2022-12-06T05:37:10.000Z,14.64
2022-12-06T05:38:09.958Z,14.77
2022-12-06T05:41:10.999Z,14.36
2022-12-06T05:42:10.023Z,14.13
2022-12-06T05:43:09.982Z,14.86
2022-12-06T05:44:10.053Z,14.06
2022-12-06T05:45:10.012Z,13.54
2022-12-06T05:46:10.120Z,14.96
2022-12-06T05:47:09.998Z,16.03
2022-12-06T05:50:10.008Z,16.12
2022-12-06T05:51:10.067Z,16.63
2022-12-06T05:52:09.986Z,16.81
2022-12-06T05:54:10.031Z,15.45
2022-12-06T05:55:10.032Z,15.58
2022-12-06T05:56:10.099Z,15.50
2022-12-06T05:57:10.022Z,15.12
2022-12-06T05:58:10.038Z,15.98
2022-12-06T05:59:10.097Z,15.12
2022-12-06T06:00:10.063Z,15.56
2022-12-06T06:01:10.095Z,15.17
2022-12-06T06:02:10.266Z,16.00
2022-12-06T06:03:10.167Z,14.98
2022-12-06T06:04:10.085Z,15.64
2022-12-06T06:05:10.051Z,15.75
2022-12-06T06:06:10.089Z,16.26
2022-12-06T06:08:10.106Z,15.78
2022-12-06T06:09:10.086Z,15.62
2022-12-06T06:14:10.132Z,15.34
2022-12-06T06:15:10.075Z,15.45
2022-12-06T06:16:10.182Z,16.28
2022-12-06T06:17:10.043Z,15.71
2022-12-06T06:20:10.101Z,15.95
2022-12-06T06:22:10.119Z,15.26
2022-12-06T06:23:10.100Z,15.93
2022-12-06T06:24:10.099Z,16.63
2022-12-06T06:25:10.105Z,14.97
2022-12-06T06:26:10.115Z,16.73
2022-12-06T06:27:10.107Z,16.04
2022-12-06T06:28:10.112Z,15.82
2022-12-06T06:29:10.125Z,15.01
2022-12-06T06:30:10.095Z,15.79
2022-12-06T06:31:10.121Z,16.92
2022-12-06T06:33:10.112Z,16.91
2022-12-06T06:35:10.118Z,16.14
2022-12-06T06:36:10.133Z,15.78
2022-12-06T06:38:10.139Z,16.47
2022-12-06T06:39:10.101Z,17.26
2022-12-06T06:40:10.181Z,16.83
2022-12-06T06:44:10.223Z,17.29
2022-12-06T06:45:10.152Z,16.70
2022-12-06T06:46:10.235Z,17.83
2022-12-06T06:47:10.157Z,18.33
2022-12-06T06:48:10.201Z,17.55
2022-12-06T06:49:10.191Z,18.55
2022-12-06T06:50:10.227Z,16.18
2022-12-06T06:52:10.178Z,16.62
2022-12-06T06:53:10.184Z,17.10
2022-12-06T06:54:10.148Z,18.03
2022-12-06T06:55:11.449Z,17.12
2022-12-06T06:56:10.139Z,18.10
2022-12-06T06:57:15.834Z,17.18
2022-12-06T06:58:10.218Z,18.29
2022-12-06T06:59:10.226Z,18.18
2022-12-06T07:00:10.202Z,17.01
2022-12-06T07:01:10.226Z,15.80
2022-12-06T07:03:10.207Z,18.13
2022-12-06T07:04:10.166Z,16.92
2022-12-06T07:05:10.216Z,17.63
2022-12-06T07:06:10.170Z,17.07
2022-12-06T07:08:10.306Z,18.52
2022-12-06T07:09:10.239Z,17.15
2022-12-06T07:10:10.252Z,17.32
2022-12-06T07:11:10.206Z,17.51
2022-12-06T07:12:10.240Z,18.11
2022-12-06T07:13:10.217Z,17.65
2022-12-06T07:14:10.201Z,16.89
2022-12-06T07:15:10.216Z,17.06
2022-12-06T07:16:10.266Z,16.44
2022-12-06T07:17:10.328Z,16.41
2022-12-06T07:18:10.243Z,17.32
2022-12-06T07:19:10.210Z,16.17
2022-12-06T07:20:10.269Z,16.15
2022-12-06T07:21:10.258Z,17.60
2022-12-06T07:22:10.269Z,18.41
2022-12-06T07:23:10.284Z,17.48
2022-12-06T07:24:10.255Z,16.95
2022-12-06T07:25:10.308Z,16.06
2022-12-06T07:26:10.256Z,16.98
2022-12-06T07:27:10.227Z,17.46
2022-12-06T07:28:10.297Z,16.27
2022-12-06T07:29:10.277Z,17.02
2022-12-06T07:30:14.386Z,15.74
2022-12-06T07:31:10.317Z,16.70
2022-12-06T07:32:11.634Z,16.72
2022-12-06T07:33:10.308Z,16.36
2022-12-06T07:34:10.304Z,16.91
2022-12-06T07:35:10.255Z,16.29
2022-12-06T07:36:12.393Z,16.78
2022-12-06T07:37:10.242Z,16.03
2022-12-06T07:38:10.283Z,17.16
2022-12-06T07:39:14.487Z,16.28
2022-12-06T07:41:10.335Z,16.32
2022-12-06T07:42:10.273Z,15.79
2022-12-06T07:44:10.280Z,16.98
2022-12-06T07:45:10.277Z,16.29
2022-12-06T07:46:10.403Z,17.85
2022-12-06T07:47:10.295Z,16.73
2022-12-06T07:48:10.350Z,17.39
2022-12-06T07:49:10.318Z,16.43
2022-12-06T07:50:15.940Z,17.45
2022-12-06T07:51:10.360Z,16.13
2022-12-06T07:52:10.330Z,17.32
2022-12-06T07:53:10.359Z,16.71
2022-12-06T07:54:10.282Z,16.83
2022-12-06T07:55:10.278Z,16.21
2022-12-06T07:56:10.336Z,16.20
2022-12-06T07:57:10.345Z,15.33
2022-12-06T07:58:10.340Z,16.08
2022-12-06T08:00:10.342Z,14.93
2022-12-06T08:01:10.395Z,15.76
2022-12-06T08:02:10.320Z,15.09
2022-12-06T08:03:10.354Z,15.27
2022-12-06T08:04:10.411Z,15.86
2022-12-06T08:05:10.363Z,16.35
2022-12-06T08:06:10.403Z,16.32
2022-12-06T08:07:10.309Z,15.67
2022-12-06T08:08:10.409Z,16.51
2022-12-06T08:09:11.878Z,16.64
2022-12-06T08:10:10.346Z,15.90
2022-12-06T08:11:10.318Z,17.62
2022-12-06T08:12:10.360Z,17.36
2022-12-06T08:13:10.355Z,16.92
2022-12-06T08:14:10.319Z,16.33
2022-12-06T08:15:10.367Z,17.08
2022-12-06T08:16:10.421Z,18.09
2022-12-06T08:17:10.349Z,16.16
2022-12-06T08:18:10.392Z,17.36
2022-12-06T08:19:10.421Z,16.99
2022-12-06T08:20:10.434Z,17.14
2022-12-06T08:21:10.388Z,15.33
2022-12-06T08:22:10.373Z,16.56
2022-12-06T08:23:10.383Z,14.74
2022-12-06T08:24:10.392Z,16.24
2022-12-06T08:25:10.394Z,16.05
2022-12-06T08:26:10.435Z,16.03
2022-12-06T08:27:10.391Z,16.25
2022-12-06T08:28:10.375Z,14.72
2022-12-06T08:29:10.420Z,17.39
2022-12-06T08:30:10.430Z,15.84
2022-12-06T08:31:10.532Z,15.02
2022-12-06T08:32:10.382Z,15.20
2022-12-06T08:33:10.426Z,15.90
2022-12-06T08:34:10.454Z,16.17
2022-12-06T08:35:10.433Z,16.41
2022-12-06T08:36:10.422Z,14.94
2022-12-06T08:37:10.431Z,16.60
2022-12-06T08:38:10.386Z,16.11
2022-12-06T08:39:10.428Z,16.54
2022-12-06T08:40:10.441Z,15.38
2022-12-06T08:41:10.401Z,15.85
2022-12-06T08:42:10.413Z,15.61
2022-12-06T08:43:10.395Z,15.46
2022-12-06T08:44:10.474Z,16.50
2022-12-06T08:45:10.462Z,16.74
2022-12-06T08:46:12.224Z,15.36
2022-12-06T08:47:10.492Z,14.48
2022-12-06T08:49:10.490Z,16.40
2022-12-06T08:50:10.440Z,16.51
2022-12-06T08:51:10.464Z,16.70
2022-12-06T08:52:10.473Z,16.47
2022-12-06T08:53:10.476Z,15.72
2022-12-06T08:54:10.464Z,17.29
2022-12-06T08:55:10.437Z,15.70
2022-12-06T08:56:10.477Z,16.33
2022-12-06T08:57:10.532Z,15.96
2022-12-06T08:58:10.436Z,16.12
2022-12-06T08:59:10.516Z,16.14
2022-12-06T09:00:10.463Z,15.74
2022-12-06T09:01:10.508Z,16.55
2022-12-06T09:02:10.538Z,15.66
2022-12-06T09:03:10.476Z,15.64
2022-12-06T09:07:12.061Z,16.44
2022-12-06T09:08:10.490Z,17.02
2022-12-06T09:09:10.475Z,17.69
2022-12-06T09:10:10.504Z,17.68
2022-12-06T09:11:10.508Z,17.50
2022-12-06T09:12:10.551Z,17.64
2022-12-06T09:13:10.525Z,16.55
2022-12-06T09:14:10.470Z,16.82
2022-12-06T09:15:10.552Z,17.81
2022-12-06T09:16:10.620Z,18.34
2022-12-06T09:17:10.498Z,17.44
2022-12-06T09:18:10.536Z,27.43
2022-12-06T09:19:10.503Z,25.52
2022-12-06T09:20:10.773Z,22.17
2022-12-06T09:21:10.550Z,19.46
2022-12-06T09:23:12.362Z,18.57
2022-12-06T09:24:10.513Z,19.30
2022-12-06T09:25:10.546Z,17.92
2022-12-06T09:26:10.516Z,22.05
2022-12-06T09:27:10.513Z,19.95
2022-12-06T09:28:10.514Z,18.59
2022-12-06T09:29:10.548Z,19.11
2022-12-06T09:30:10.567Z,18.83
2022-12-06T09:31:10.738Z,17.21
2022-12-06T09:32:10.552Z,18.62
2022-12-06T09:33:10.563Z,18.24
2022-12-06T09:34:10.553Z,18.55
2022-12-06T09:35:15.078Z,20.17
2022-12-06T09:36:10.553Z,17.99
2022-12-06T09:37:10.611Z,18.05
2022-12-06T09:38:10.531Z,18.78
2022-12-06T09:39:10.588Z,17.75
2022-12-06T09:40:10.573Z,18.29
2022-12-06T09:41:10.564Z,19.57
2022-12-06T09:42:10.543Z,18.11
2022-12-06T09:43:10.544Z,18.65
2022-12-06T09:44:10.598Z,18.48
2022-12-06T09:45:10.641Z,18.33
2022-12-06T09:46:10.660Z,18.22
2022-12-06T09:47:10.550Z,18.59
2022-12-06T09:48:10.630Z,17.65
2022-12-06T09:49:10.629Z,18.28
2022-12-06T09:50:10.608Z,18.36
2022-12-06T09:51:10.601Z,19.45
2022-12-06T09:52:10.607Z,21.11
2022-12-06T09:53:10.734Z,20.35
2022-12-06T09:54:10.577Z,17.81
2022-12-06T09:55:10.607Z,19.37
2022-12-06T09:56:10.588Z,19.59
2022-12-06T09:57:10.630Z,19.27
2022-12-06T09:58:10.644Z,19.29
2022-12-06T09:59:10.631Z,19.62
2022-12-06T10:00:15.425Z,17.46
2022-12-06T10:01:10.618Z,17.96
2022-12-06T10:02:10.688Z,17.72
2022-12-06T10:03:10.727Z,18.28
2022-12-06T10:04:10.585Z,18.35
2022-12-06T10:05:10.660Z,17.97
2022-12-06T10:06:10.684Z,17.13
2022-12-06T10:07:10.643Z,17.61
2022-12-06T10:08:10.749Z,17.82
2022-12-06T10:09:10.684Z,16.63
2022-12-06T10:10:10.653Z,15.88
2022-12-06T10:11:10.678Z,17.36
2022-12-06T10:12:10.618Z,16.39
2022-12-06T10:13:10.745Z,17.35
2022-12-06T10:14:10.662Z,16.59
2022-12-06T10:15:10.652Z,17.71
2022-12-06T10:16:10.720Z,16.82
2022-12-06T10:17:10.616Z,17.41
2022-12-06T10:18:10.727Z,18.02
2022-12-06T10:19:10.633Z,17.57
2022-12-06T10:20:10.675Z,16.89
2022-12-06T10:21:10.694Z,17.78
2022-12-06T10:22:10.689Z,18.74
2022-12-06T10:23:10.696Z,17.53
2022-12-06T10:24:10.681Z,16.96
2022-12-06T10:25:10.643Z,17.51
2022-12-06T10:26:10.687Z,15.92
2022-12-06T10:27:10.708Z,16.20
2022-12-06T10:28:10.727Z,17.61
2022-12-06T10:29:10.714Z,16.70
2022-12-06T10:30:10.704Z,17.72
2022-12-06T10:31:10.806Z,15.40
2022-12-06T10:32:10.707Z,17.65
2022-12-06T10:33:10.715Z,17.35
2022-12-06T10:34:10.696Z,15.64
2022-12-06T10:35:10.701Z,16.33
2022-12-06T10:36:10.738Z,16.80
2022-12-06T10:37:12.944Z,15.74
2022-12-06T10:38:10.714Z,15.10
2022-12-06T10:39:10.774Z,14.74
2022-12-06T10:40:10.690Z,15.07
2022-12-06T10:41:10.716Z,16.25
2022-12-06T10:42:10.718Z,16.09
2022-12-06T10:43:10.682Z,15.07
2022-12-06T10:44:10.775Z,15.23
2022-12-06T10:45:10.688Z,15.57
2022-12-06T10:46:10.905Z,15.14
2022-12-06T10:47:10.822Z,14.66
2022-12-06T10:48:10.739Z,15.31
2022-12-06T10:49:10.792Z,15.31
2022-12-06T10:50:10.741Z,13.68
2022-12-06T10:51:10.753Z,13.64
2022-12-06T10:52:10.753Z,14.72
2022-12-06T10:53:10.768Z,13.95
2022-12-06T10:54:10.823Z,14.34
2022-12-06T10:56:10.729Z,15.10
2022-12-06T10:57:10.770Z,12.93
2022-12-06T10:58:10.724Z,12.38
2022-12-06T10:59:10.794Z,11.04
2022-12-06T11:00:15.326Z,11.09
2022-12-06T11:01:10.861Z,12.50
2022-12-06T11:02:10.845Z,11.94
2022-12-06T11:03:10.755Z,12.49
2022-12-06T11:04:10.780Z,12.98
2022-12-06T11:05:10.760Z,10.97
2022-12-06T11:06:10.794Z,11.91
2022-12-06T11:07:10.821Z,10.72
2022-12-06T11:08:10.935Z,10.34
2022-12-06T11:09:10.802Z,10.56
2022-12-06T11:10:10.758Z,10.03
2022-12-06T11:11:10.811Z,10.86
2022-12-06T11:12:10.848Z,10.61
2022-12-06T11:13:10.781Z,9.36
2022-12-06T11:14:13.192Z,9.59
2022-12-06T11:15:10.773Z,9.53
2022-12-06T11:16:10.843Z,9.59
2022-12-06T11:17:10.801Z,10.66
2022-12-06T11:18:10.810Z,10.30
2022-12-06T11:19:10.873Z,9.67
2022-12-06T11:20:10.806Z,9.46
2022-12-06T11:21:10.824Z,9.41
2022-12-06T11:22:10.859Z,9.03
2022-12-06T11:24:10.859Z,9.16
2022-12-06T11:25:10.797Z,9.13
2022-12-06T11:26:10.857Z,8.41
2022-12-06T11:27:10.859Z,9.00
2022-12-06T11:28:10.807Z,9.04
2022-12-06T11:29:10.874Z,9.11
2022-12-06T11:30:10.826Z,9.77
2022-12-06T11:31:10.905Z,11.05
2022-12-06T11:32:10.874Z,11.59
2022-12-06T11:33:10.860Z,12.71
2022-12-06T11:35:10.829Z,10.79
2022-12-06T11:36:10.833Z,9.42
2022-12-06T11:37:10.890Z,9.75
2022-12-06T11:38:10.866Z,9.26
2022-12-06T11:39:10.891Z,11.19
2022-12-06T11:40:10.829Z,11.02
2022-12-06T11:41:10.873Z,9.73
2022-12-06T11:42:10.875Z,9.96
2022-12-06T11:45:10.892Z,16.76
2022-12-06T11:46:10.912Z,18.13
2022-12-06T11:47:10.957Z,12.67
2022-12-06T11:48:10.904Z,10.69
2022-12-06T11:49:10.906Z,10.34
2022-12-06T11:50:15.570Z,10.19
2022-12-06T11:51:13.429Z,9.83
2022-12-06T11:52:10.926Z,9.09
2022-12-06T11:53:10.861Z,9.56
2022-12-06T11:54:10.870Z,9.61
2022-12-06T11:55:10.910Z,10.84
2022-12-06T11:56:10.912Z,13.06
2022-12-06T11:57:10.919Z,13.29
2022-12-06T11:58:10.867Z,10.22
2022-12-06T11:59:10.912Z,10.53
2022-12-06T12:00:10.935Z,9.36
2022-12-06T12:01:10.915Z,10.61
2022-12-06T12:02:14.096Z,9.88
2022-12-06T12:03:10.921Z,10.27
2022-12-06T12:04:10.880Z,10.38
2022-12-06T12:05:10.924Z,9.91
2022-12-06T12:06:10.919Z,9.81
2022-12-06T12:07:10.967Z,11.35
2022-12-06T12:08:10.965Z,10.21
2022-12-06T12:09:10.895Z,10.76
2022-12-06T12:10:10.950Z,9.40
2022-12-06T12:11:10.913Z,10.52
2022-12-06T12:12:10.974Z,10.31
2022-12-06T12:14:10.946Z,10.34
2022-12-06T12:15:10.942Z,10.57
2022-12-06T12:16:11.008Z,11.61
2022-12-06T12:17:10.968Z,11.20
2022-12-06T12:18:10.943Z,10.11
2022-12-06T12:19:10.910Z,9.65
2022-12-06T12:20:10.986Z,10.20
2022-12-06T12:21:10.957Z,9.69
2022-12-06T12:22:11.011Z,8.82
2022-12-06T12:23:10.943Z,9.86
2022-12-06T12:24:10.987Z,14.30
2022-12-06T12:25:18.779Z,9.95
2022-12-06T12:26:10.980Z,12.09
2022-12-06T12:27:14.079Z,11.46
2022-12-06T12:28:13.682Z,11.54
2022-12-06T12:29:10.979Z,11.84
2022-12-06T12:30:11.052Z,10.74
2022-12-06T12:31:11.010Z,10.02
2022-12-06T12:32:11.046Z,9.46
2022-12-06T12:33:10.993Z,10.12
2022-12-06T12:34:10.992Z,9.67
2022-12-06T12:35:11.028Z,9.95
2022-12-06T12:37:11.017Z,10.25
2022-12-06T12:38:11.041Z,12.21
2022-12-06T12:39:11.006Z,12.16
2022-12-06T12:40:11.086Z,10.60
2022-12-06T12:41:11.036Z,9.81
2022-12-06T12:42:11.056Z,9.96
2022-12-06T12:43:11.059Z,11.62
2022-12-06T12:44:36.550Z,11.70
2022-12-06T12:45:11.025Z,10.42
2022-12-06T12:46:11.042Z,9.08
2022-12-06T12:47:11.024Z,10.58
2022-12-06T12:48:11.087Z,9.90
2022-12-06T12:49:11.038Z,9.82
2022-12-06T12:50:10.995Z,9.14
2022-12-06T12:51:11.073Z,9.69
2022-12-06T12:52:11.039Z,9.77
2022-12-06T12:53:11.111Z,11.75
2022-12-06T12:54:11.020Z,11.51
2022-12-06T12:55:11.046Z,10.16
2022-12-06T12:56:11.043Z,9.64
2022-12-06T12:57:11.005Z,9.02
2022-12-06T12:58:11.052Z,9.26
2022-12-06T12:59:11.053Z,10.29
2022-12-06T13:00:11.069Z,9.60
2022-12-06T13:01:11.161Z,8.23
2022-12-06T13:02:11.123Z,10.02
2022-12-06T13:04:11.099Z,11.89
2022-12-06T13:08:11.124Z,11.70
2022-12-06T13:09:11.117Z,10.64
2022-12-06T13:10:11.057Z,9.78
2022-12-06T13:11:11.053Z,10.71
2022-12-06T13:12:11.140Z,9.84
2022-12-06T13:13:11.095Z,10.03
2022-12-06T13:14:11.104Z,10.76
2022-12-06T13:15:11.118Z,11.48
2022-12-06T13:16:11.081Z,10.57
2022-12-06T13:17:11.113Z,9.98
2022-12-06T13:18:11.113Z,11.76
2022-12-06T13:19:11.105Z,14.68
2022-12-06T13:22:11.179Z,12.82
2022-12-06T13:24:11.124Z,11.60
2022-12-06T13:26:11.125Z,10.78
2022-12-06T13:27:11.120Z,10.79
2022-12-06T13:28:11.111Z,10.64
2022-12-06T13:29:11.147Z,11.08
2022-12-06T13:30:11.148Z,11.80
2022-12-06T13:31:11.149Z,12.23
2022-12-06T13:32:11.132Z,11.63
2022-12-06T13:33:13.212Z,11.02
2022-12-06T13:34:11.208Z,10.18
2022-12-06T13:35:11.139Z,11.08
2022-12-06T13:37:11.184Z,11.48
2022-12-06T13:38:11.134Z,10.84
2022-12-06T13:39:11.199Z,11.04
2022-12-06T13:40:11.292Z,10.64
2022-12-06T13:41:11.128Z,11.22
2022-12-06T13:43:11.136Z,10.24
2022-12-06T13:44:11.198Z,11.22
2022-12-06T13:46:11.216Z,12.38
2022-12-06T13:47:11.198Z,12.98
2022-12-06T13:49:11.216Z,12.26
2022-12-06T13:50:11.185Z,19.25
2022-12-06T13:51:11.176Z,21.29
2022-12-06T13:52:11.242Z,18.70
2022-12-06T13:53:11.180Z,14.40
2022-12-06T13:54:11.185Z,12.87
2022-12-06T13:55:17.115Z,11.66
2022-12-06T13:56:11.205Z,11.87
2022-12-06T13:57:11.199Z,12.61
2022-12-06T13:58:11.190Z,12.39
2022-12-06T14:01:11.256Z,12.20
2022-12-06T14:02:11.357Z,11.00
2022-12-06T14:03:11.257Z,11.32
2022-12-06T14:04:11.229Z,12.01
2022-12-06T14:06:15.395Z,11.21
2022-12-06T14:08:11.297Z,11.42
2022-12-06T14:10:11.216Z,11.31
2022-12-06T14:11:11.204Z,10.88
2022-12-06T14:13:11.241Z,11.24
2022-12-06T14:14:11.211Z,12.06
2022-12-06T14:15:11.265Z,11.96
2022-12-06T14:16:11.226Z,10.31
2022-12-06T14:17:11.347Z,10.36
2022-12-06T14:18:13.075Z,10.42
2022-12-06T14:19:14.325Z,12.26
2022-12-06T14:20:11.245Z,11.14
2022-12-06T14:21:11.242Z,10.73
2022-12-06T14:22:11.224Z,11.17
2022-12-06T14:23:11.244Z,10.93
2022-12-06T14:24:11.209Z,13.44
2022-12-06T14:25:11.270Z,14.14
2022-12-06T14:26:11.242Z,12.34
2022-12-06T14:27:11.309Z,12.14
2022-12-06T14:28:11.228Z,14.15
2022-12-06T14:29:11.220Z,13.48
2022-12-06T14:30:11.310Z,12.82
2022-12-06T14:31:11.298Z,12.63
2022-12-06T14:32:11.312Z,12.17